Suderau — V2BE1 — position and weather

sailwx.info

Track history (hours):
 
Tides and Currents Weather Stations Pressure Air Temp Water Temp Dewpoint Dewpoint Depression Visibility Wind Speed Wind Dir Waves Ship Positions

Suderau

Last reported at 2017-Sep-20 18:07 UTC. Time now 2017-Sep-21 09:06 UTC.
Position N 53°43' W 000°37'.

Length 88 m; draft 5.4 m.

Type: Cargo ship. MMSI: 304797000.

Date/timePositionNaut miles runAvg speedWind from/ knotsBaromVisibWave heightAir tempDewpointWater temp
2017-Sep-20 18:07N 53°43' W 000°37'110.7
2017-Sep-20 18:00N 53°42' W 000°35'4 7.7
2017-Sep-20 17:30N 53°42' W 000°29'510.0
2017-Sep-20 17:01N 53°43' W 000°21'4 8.6
2017-Sep-20 16:31N 53°42' W 000°14'510.4
2017-Sep-20 16:00N 53°38' W 000°08'53 3.7
2017-Sep-20 01:46N 53°06' E 001°03'311.5
2017-Sep-20 01:30N 53°05' E 001°07'611.6
2017-Sep-20 01:00N 53°03' E 001°16'611.8
2017-Sep-20 00:30N 52°59' E 001°24'611.9
2017-Sep-20 00:00N 52°56' E 001°32'611.5
2017-Sep-19 23:30N 52°52' E 001°40'510.5
2017-Sep-19 23:00N 52°49' E 001°47'5 9.7
2017-Sep-19 22:30N 52°46' E 001°53'4 8.3
2017-Sep-19 21:59N 52°42' E 001°55'11 7.8
2017-Sep-19 20:33N 52°31' E 001°55'1 7.5
2017-Sep-19 20:27N 52°30' E 001°54'4 7.4
2017-Sep-19 19:57N 52°26' E 001°53'15 7.6
2017-Sep-19 17:59N 52°12' E 001°51'4 9.1
2017-Sep-19 17:30N 52°07' E 001°50'510.0
2017-Sep-19 17:00N 52°02' E 001°50'511.0
2017-Sep-19 16:30N 51°57' E 001°49'611.3
2017-Sep-19 16:00N 51°51' E 001°48'611.1
2017-Sep-19 15:30N 51°46' E 001°48'611.2
2017-Sep-19 15:00N 51°40' E 001°49'611.2
2017-Sep-19 14:30N 51°35' E 001°47'611.3
2017-Sep-19 14:00N 51°29' E 001°46'611.5
2017-Sep-19 13:30N 51°23' E 001°45'611.9
2017-Sep-19 13:00N 51°17' E 001°43'612.1
2017-Sep-19 12:30N 51°12' E 001°38'4 8.5
2017-Sep-19 12:00N 51°08' E 001°39'510.1
2017-Sep-19 11:30N 51°03' E 001°35'612.5
2017-Sep-19 11:00N 50°58' E 001°29'104 8.8
2017-Sep-18 23:18N 50°10' W 000°56'4 8.5
2017-Sep-18 22:48N 50°09' W 001°02'3 9.1
2017-Sep-18 22:28N 50°08' W 001°06'4 9.7
2017-Sep-18 22:00N 50°07' W 001°13'510.5
2017-Sep-18 21:30N 50°05' W 001°21'611.4
2017-Sep-18 21:01N 50°03' W 001°29'611.9
2017-Sep-18 20:30N 50°02' W 001°38'612.7
2017-Sep-18 20:00N 50°00' W 001°48'3912.9
2017-Sep-18 16:58N 49°49' W 002°46'111 9.4
2017-Sep-18 05:09N 48°53' W 005°14'31 8.6
2017-Sep-18 01:32N 48°26' W 005°37'310.9
2017-Sep-18 01:17N 48°24' W 005°35'710.9
2017-Sep-18 00:38N 48°18' W 005°31'1110.9
2017-Sep-17 23:38N 48°08' W 005°23'318 9.0
2017-Sep-16 12:23N 43°24' W 001°58'3 0.1
2017-Sep-14 16:15N 43°22' W 001°54'2 6.9
2017-Sep-14 16:00N 43°23' W 001°52'4 7.1
2017-Sep-14 15:30N 43°25' W 001°48'3 6.9
2017-Sep-14 15:00N 43°27' W 001°44'3 6.9
2017-Sep-14 14:30N 43°29' W 001°40'3 6.8
2017-Sep-14 14:00N 43°31' W 001°36'3 6.4
2017-Sep-14 13:30N 43°32' W 001°32'2 3.5
2017-Sep-14 12:59N 43°32' W 001°30'0 0.0
2017-Sep-14 12:29N 43°32' W 001°30'0 0.0
2017-Sep-14 11:59N 43°32' W 001°30'0 0.0
2017-Sep-14 11:29N 43°32' W 001°30'0 0.0
2017-Sep-14 10:59N 43°32' W 001°30'0 0.0
2017-Sep-14 10:29N 43°32' W 001°30'0 0.0
2017-Sep-14 09:59N 43°32' W 001°30'0 0.0
2017-Sep-14 09:29N 43°32' W 001°30'0 0.0
2017-Sep-14 08:59N 43°32' W 001°30'0 0.0
2017-Sep-14 08:26N 43°32' W 001°30'0 0.0
2017-Sep-14 07:56N 43°32' W 001°30'0 0.0
2017-Sep-14 07:17N 43°32' W 001°30'0 0.0
2017-Sep-14 06:59N 43°32' W 001°30'0 0.0
2017-Sep-14 06:26N 43°32' W 001°30'0 0.0
2017-Sep-14 05:56N 43°32' W 001°30'0 0.0
2017-Sep-14 05:29N 43°32' W 001°30'0 0.0
2017-Sep-14 04:59N 43°32' W 001°30'0 0.0
2017-Sep-14 04:29N 43°32' W 001°30'0 0.0
2017-Sep-14 03:56N 43°32' W 001°30'0 0.0
2017-Sep-14 03:23N 43°32' W 001°30'0 0.0
2017-Sep-14 02:59N 43°32' W 001°30'0 0.0
2017-Sep-14 02:29N 43°32' W 001°30'0 0.0
2017-Sep-14 01:59N 43°32' W 001°30'0 0.0
2017-Sep-14 01:29N 43°32' W 001°30'0 0.0
2017-Sep-14 00:59N 43°32' W 001°30'0 0.0
2017-Sep-14 00:20N 43°32' W 001°30'0 0.0
2017-Sep-13 23:56N 43°32' W 001°30'0 0.0
2017-Sep-13 23:26N 43°32' W 001°30'0 0.0
2017-Sep-13 22:56N 43°32' W 001°30'0 0.0
2017-Sep-13 22:26N 43°32' W 001°30'0 0.0
2017-Sep-13 21:56N 43°32' W 001°30'0 0.0
2017-Sep-13 21:26N 43°32' W 001°30'0 0.0
2017-Sep-13 20:50N 43°32' W 001°30'0 0.0
2017-Sep-13 20:26N 43°32' W 001°30'0 0.0
2017-Sep-13 19:59N 43°32' W 001°30'0 0.0
2017-Sep-13 18:50N 43°32' W 001°30'0 0.0
2017-Sep-13 18:26N 43°32' W 001°30'0 0.0
2017-Sep-13 17:59N 43°32' W 001°30'0 0.0
2017-Sep-13 17:29N 43°32' W 001°30'0 0.0
2017-Sep-13 16:56N 43°32' W 001°30'0 0.0
2017-Sep-13 16:29N 43°32' W 001°30'0 0.0
2017-Sep-13 15:59N 43°32' W 001°30'0 0.0
2017-Sep-13 15:29N 43°32' W 001°30'0 0.0
2017-Sep-13 14:59N 43°32' W 001°30'0 0.0
2017-Sep-13 14:29N 43°32' W 001°30'0 0.0
2017-Sep-13 13:47N 43°32' W 001°30'0 0.0
2017-Sep-13 13:29N 43°32' W 001°30'0 0.0
2017-Sep-13 12:59N 43°32' W 001°30'0 0.0
2017-Sep-13 12:26N 43°32' W 001°30'0 0.0
2017-Sep-13 11:59N 43°32' W 001°30'0 0.0
2017-Sep-13 11:29N 43°32' W 001°30'0 0.0
2017-Sep-13 10:56N 43°32' W 001°30'0 0.0
2017-Sep-13 10:29N 43°32' W 001°30'0 0.0
2017-Sep-13 09:53N 43°32' W 001°30'0 0.0
2017-Sep-13 09:29N 43°32' W 001°30'2 3.6
2017-Sep-13 09:00N 43°32' W 001°32'324 8.5
2017-Sep-11 18:39N 48°11' W 005°30'104 4.7
2017-Sep-10 20:33N 49°34' W 003°56'0 3.5
2017-Sep-10 20:25N 49°35' W 003°55'1 3.5
2017-Sep-10 20:00N 49°35' W 003°53'2 3.8
2017-Sep-10 19:22N 49°37' W 003°50'1 3.9
2017-Sep-10 19:00N 49°37' W 003°48'2 4.2
2017-Sep-10 18:29N 49°39' W 003°45'  
Track history (hours):
 
Tides and Currents Weather Stations Pressure Air Temp Water Temp Dewpoint Dewpoint Depression Visibility Wind Speed Wind Dir Waves Ship Positions

Suderau

Last reported at 2017-Sep-20 18:07 UTC. Time now 2017-Sep-21 09:06 UTC.
Position N 53°43' W 000°37'.

Length 88 m; draft 5.4 m.

Type: Cargo ship. MMSI: 304797000.

Date/timePositionNaut miles runAvg speedWind from/ knotsBaromVisibWave heightAir tempDewpointWater temp
2017-Sep-20 18:07N 53°43' W 000°37'110.7
2017-Sep-20 18:00N 53°42' W 000°35'4 7.7
2017-Sep-20 17:30N 53°42' W 000°29'510.0
2017-Sep-20 17:01N 53°43' W 000°21'4 8.6
2017-Sep-20 16:31N 53°42' W 000°14'510.4
2017-Sep-20 16:00N 53°38' W 000°08'53 3.7
2017-Sep-20 01:46N 53°06' E 001°03'311.5
2017-Sep-20 01:30N 53°05' E 001°07'611.6
2017-Sep-20 01:00N 53°03' E 001°16'611.8
2017-Sep-20 00:30N 52°59' E 001°24'611.9
2017-Sep-20 00:00N 52°56' E 001°32'611.5
2017-Sep-19 23:30N 52°52' E 001°40'510.5
2017-Sep-19 23:00N 52°49' E 001°47'5 9.7
2017-Sep-19 22:30N 52°46' E 001°53'4 8.3
2017-Sep-19 21:59N 52°42' E 001°55'11 7.8
2017-Sep-19 20:33N 52°31' E 001°55'1 7.5
2017-Sep-19 20:27N 52°30' E 001°54'4 7.4
2017-Sep-19 19:57N 52°26' E 001°53'15 7.6
2017-Sep-19 17:59N 52°12' E 001°51'4 9.1
2017-Sep-19 17:30N 52°07' E 001°50'510.0
2017-Sep-19 17:00N 52°02' E 001°50'511.0
2017-Sep-19 16:30N 51°57' E 001°49'611.3
2017-Sep-19 16:00N 51°51' E 001°48'611.1
2017-Sep-19 15:30N 51°46' E 001°48'611.2
2017-Sep-19 15:00N 51°40' E 001°49'611.2
2017-Sep-19 14:30N 51°35' E 001°47'611.3
2017-Sep-19 14:00N 51°29' E 001°46'611.5
2017-Sep-19 13:30N 51°23' E 001°45'611.9
2017-Sep-19 13:00N 51°17' E 001°43'612.1
2017-Sep-19 12:30N 51°12' E 001°38'4 8.5
2017-Sep-19 12:00N 51°08' E 001°39'510.1
2017-Sep-19 11:30N 51°03' E 001°35'612.5
2017-Sep-19 11:00N 50°58' E 001°29'104 8.8
2017-Sep-18 23:18N 50°10' W 000°56'4 8.5
2017-Sep-18 22:48N 50°09' W 001°02'3 9.1
2017-Sep-18 22:28N 50°08' W 001°06'4 9.7
2017-Sep-18 22:00N 50°07' W 001°13'510.5
2017-Sep-18 21:30N 50°05' W 001°21'611.4
2017-Sep-18 21:01N 50°03' W 001°29'611.9
2017-Sep-18 20:30N 50°02' W 001°38'612.7
2017-Sep-18 20:00N 50°00' W 001°48'3912.9
2017-Sep-18 16:58N 49°49' W 002°46'111 9.4
2017-Sep-18 05:09N 48°53' W 005°14'31 8.6
2017-Sep-18 01:32N 48°26' W 005°37'310.9
2017-Sep-18 01:17N 48°24' W 005°35'710.9
2017-Sep-18 00:38N 48°18' W 005°31'1110.9
2017-Sep-17 23:38N 48°08' W 005°23'318 9.0
2017-Sep-16 12:23N 43°24' W 001°58'3 0.1
2017-Sep-14 16:15N 43°22' W 001°54'2 6.9
2017-Sep-14 16:00N 43°23' W 001°52'4 7.1
2017-Sep-14 15:30N 43°25' W 001°48'3 6.9
2017-Sep-14 15:00N 43°27' W 001°44'3 6.9
2017-Sep-14 14:30N 43°29' W 001°40'3 6.8
2017-Sep-14 14:00N 43°31' W 001°36'3 6.4
2017-Sep-14 13:30N 43°32' W 001°32'2 3.5
2017-Sep-14 12:59N 43°32' W 001°30'0 0.0
2017-Sep-14 12:29N 43°32' W 001°30'0 0.0
2017-Sep-14 11:59N 43°32' W 001°30'0 0.0
2017-Sep-14 11:29N 43°32' W 001°30'0 0.0
2017-Sep-14 10:59N 43°32' W 001°30'0 0.0
2017-Sep-14 10:29N 43°32' W 001°30'0 0.0
2017-Sep-14 09:59N 43°32' W 001°30'0 0.0
2017-Sep-14 09:29N 43°32' W 001°30'0 0.0
2017-Sep-14 08:59N 43°32' W 001°30'0 0.0
2017-Sep-14 08:26N 43°32' W 001°30'0 0.0
2017-Sep-14 07:56N 43°32' W 001°30'0 0.0
2017-Sep-14 07:17N 43°32' W 001°30'0 0.0
2017-Sep-14 06:59N 43°32' W 001°30'0 0.0
2017-Sep-14 06:26N 43°32' W 001°30'0 0.0
2017-Sep-14 05:56N 43°32' W 001°30'0 0.0
2017-Sep-14 05:29N 43°32' W 001°30'0 0.0
2017-Sep-14 04:59N 43°32' W 001°30'0 0.0
2017-Sep-14 04:29N 43°32' W 001°30'0 0.0
2017-Sep-14 03:56N 43°32' W 001°30'0 0.0
2017-Sep-14 03:23N 43°32' W 001°30'0 0.0
2017-Sep-14 02:59N 43°32' W 001°30'0 0.0
2017-Sep-14 02:29N 43°32' W 001°30'0 0.0
2017-Sep-14 01:59N 43°32' W 001°30'0 0.0
2017-Sep-14 01:29N 43°32' W 001°30'0 0.0
2017-Sep-14 00:59N 43°32' W 001°30'0 0.0
2017-Sep-14 00:20N 43°32' W 001°30'0 0.0
2017-Sep-13 23:56N 43°32' W 001°30'0 0.0
2017-Sep-13 23:26N 43°32' W 001°30'0 0.0
2017-Sep-13 22:56N 43°32' W 001°30'0 0.0
2017-Sep-13 22:26N 43°32' W 001°30'0 0.0
2017-Sep-13 21:56N 43°32' W 001°30'0 0.0
2017-Sep-13 21:26N 43°32' W 001°30'0 0.0
2017-Sep-13 20:50N 43°32' W 001°30'0 0.0
2017-Sep-13 20:26N 43°32' W 001°30'0 0.0
2017-Sep-13 19:59N 43°32' W 001°30'0 0.0
2017-Sep-13 18:50N 43°32' W 001°30'0 0.0
2017-Sep-13 18:26N 43°32' W 001°30'0 0.0
2017-Sep-13 17:59N 43°32' W 001°30'0 0.0
2017-Sep-13 17:29N 43°32' W 001°30'0 0.0
2017-Sep-13 16:56N 43°32' W 001°30'0 0.0
2017-Sep-13 16:29N 43°32' W 001°30'0 0.0
2017-Sep-13 15:59N 43°32' W 001°30'0 0.0
2017-Sep-13 15:29N 43°32' W 001°30'0 0.0
2017-Sep-13 14:59N 43°32' W 001°30'0 0.0
2017-Sep-13 14:29N 43°32' W 001°30'0 0.0
2017-Sep-13 13:47N 43°32' W 001°30'0 0.0
2017-Sep-13 13:29N 43°32' W 001°30'0 0.0
2017-Sep-13 12:59N 43°32' W 001°30'0 0.0
2017-Sep-13 12:26N 43°32' W 001°30'0 0.0
2017-Sep-13 11:59N 43°32' W 001°30'0 0.0
2017-Sep-13 11:29N 43°32' W 001°30'0 0.0
2017-Sep-13 10:56N 43°32' W 001°30'0 0.0
2017-Sep-13 10:29N 43°32' W 001°30'0 0.0
2017-Sep-13 09:53N 43°32' W 001°30'0 0.0
2017-Sep-13 09:29N 43°32' W 001°30'2 3.6
2017-Sep-13 09:00N 43°32' W 001°32'324 8.5
2017-Sep-11 18:39N 48°11' W 005°30'104 4.7
2017-Sep-10 20:33N 49°34' W 003°56'0 3.5
2017-Sep-10 20:25N 49°35' W 003°55'1 3.5
2017-Sep-10 20:00N 49°35' W 003°53'2 3.8
2017-Sep-10 19:22N 49°37' W 003°50'1 3.9
2017-Sep-10 19:00N 49°37' W 003°48'2 4.2
2017-Sep-10 18:29N 49°39' W 003°45'  

Dump ship's entire track history